createdAt,value
2022-10-14T00:01:49.761Z,18.17
2022-10-14T00:04:16.362Z,16.47
2022-10-14T00:06:42.893Z,14.60
2022-10-14T00:09:11.248Z,15.33
2022-10-14T00:11:37.879Z,15.00
2022-10-14T00:14:10.793Z,15.87
2022-10-14T00:16:40.201Z,13.60
2022-10-14T00:19:10.111Z,16.60
2022-10-14T00:21:37.783Z,15.60
2022-10-14T00:24:05.196Z,15.13
2022-10-14T00:26:32.553Z,14.50
2022-10-14T00:28:59.319Z,14.90
2022-10-14T00:31:26.131Z,13.67
2022-10-14T00:33:52.665Z,18.30
2022-10-14T00:36:19.826Z,16.00
2022-10-14T00:38:46.668Z,16.73
2022-10-14T00:41:14.284Z,14.63
2022-10-14T00:43:51.077Z,17.77
2022-10-14T00:46:17.648Z,16.07
2022-10-14T00:48:44.127Z,17.87
2022-10-14T00:51:11.055Z,18.80
2022-10-14T00:53:37.708Z,15.93
2022-10-14T00:56:04.403Z,15.07
2022-10-14T00:58:31.004Z,14.93
2022-10-14T01:00:57.554Z,13.70
2022-10-14T01:03:24.197Z,14.80
2022-10-14T01:06:00.021Z,14.33
2022-10-14T01:08:28.397Z,13.53
2022-10-14T01:10:59.093Z,17.50
2022-10-14T01:13:31.797Z,13.33
2022-10-14T01:16:10.580Z,18.70
2022-10-14T01:18:43.434Z,14.70
2022-10-14T01:21:13.112Z,17.23
2022-10-14T01:23:40.594Z,17.40
2022-10-14T01:26:07.136Z,12.73
2022-10-14T01:28:52.789Z,20.30
2022-10-14T01:31:23.053Z,15.10
2022-10-14T01:33:51.779Z,17.10
2022-10-14T01:36:32.543Z,21.13
2022-10-14T01:39:03.227Z,21.60
2022-10-14T01:41:30.538Z,19.57
2022-10-14T01:44:00.170Z,18.47
2022-10-14T01:46:26.709Z,14.50
2022-10-14T01:48:54.580Z,22.63
2022-10-14T01:51:22.905Z,21.13
2022-10-14T01:53:52.812Z,19.90
2022-10-14T01:56:19.367Z,19.63
2022-10-14T01:58:45.898Z,18.20
2022-10-14T02:01:12.454Z,20.47
2022-10-14T02:03:42.885Z,15.63
2022-10-14T02:06:11.672Z,17.13
2022-10-14T02:08:59.340Z,15.50
2022-10-14T02:11:25.963Z,15.63
2022-10-14T02:14:17.288Z,21.37
2022-10-14T02:16:48.257Z,20.47
2022-10-14T02:19:24.054Z,16.17
2022-10-14T02:21:53.728Z,19.80
2022-10-14T02:24:24.981Z,17.27
2022-10-14T02:26:51.606Z,15.67
2022-10-14T02:29:18.679Z,17.07
2022-10-14T02:31:45.278Z,16.83
2022-10-14T02:34:12.663Z,16.77
2022-10-14T02:36:39.208Z,16.40
2022-10-14T02:39:06.677Z,15.80
2022-10-14T02:41:34.029Z,17.67
2022-10-14T02:44:00.557Z,18.20
2022-10-14T02:46:29.041Z,16.20
2022-10-14T02:48:55.525Z,16.80
2022-10-14T02:51:22.150Z,13.57
2022-10-14T02:53:48.628Z,21.27
2022-10-14T02:56:15.321Z,19.10
2022-10-14T02:58:41.869Z,18.50
2022-10-14T03:01:08.499Z,17.73
2022-10-14T03:03:36.074Z,16.73
2022-10-14T03:06:03.490Z,19.60
2022-10-14T03:08:30.689Z,18.57
2022-10-14T03:10:58.615Z,22.87
2022-10-14T03:13:26.225Z,14.47
2022-10-14T03:15:52.929Z,21.63
2022-10-14T03:18:19.941Z,18.70
2022-10-14T03:20:48.774Z,16.77
2022-10-14T03:23:23.687Z,19.73
2022-10-14T03:25:53.211Z,17.80
2022-10-14T03:28:25.113Z,18.27
2022-10-14T03:31:12.892Z,15.70
2022-10-14T03:33:52.547Z,16.07
2022-10-14T03:36:19.077Z,16.53
2022-10-14T03:38:50.097Z,19.37
2022-10-14T03:41:32.969Z,19.90
2022-10-14T03:44:00.028Z,20.30
2022-10-14T03:46:26.965Z,16.77
2022-10-14T03:48:53.678Z,18.03
2022-10-14T03:51:20.723Z,18.83
2022-10-14T03:53:47.988Z,18.87
2022-10-14T03:56:23.662Z,14.47
2022-10-14T03:58:51.784Z,17.67
2022-10-14T04:01:19.110Z,18.30
2022-10-14T04:04:08.526Z,20.37
2022-10-14T04:06:36.753Z,18.10
2022-10-14T04:09:05.926Z,16.43
2022-10-14T04:11:36.548Z,21.10
2022-10-14T04:14:09.565Z,19.33
2022-10-14T04:16:48.838Z,25.97
2022-10-14T04:19:17.015Z,25.77
2022-10-14T04:21:43.792Z,26.77
2022-10-14T04:24:10.710Z,23.43
2022-10-14T04:26:42.187Z,26.50
2022-10-14T04:29:15.577Z,23.33
2022-10-14T04:31:52.475Z,24.60
2022-10-14T04:34:19.763Z,24.10
2022-10-14T04:36:46.488Z,24.73
2022-10-14T04:39:31.455Z,26.37
2022-10-14T04:41:58.230Z,21.50
2022-10-14T04:44:24.894Z,21.90
2022-10-14T04:46:53.970Z,24.13
2022-10-14T04:49:24.375Z,23.33
2022-10-14T04:52:07.996Z,25.47
2022-10-14T04:54:51.487Z,26.80
2022-10-14T04:57:27.187Z,20.27
2022-10-14T04:59:53.778Z,22.37
2022-10-14T05:02:32.109Z,20.17
2022-10-14T05:05:00.967Z,25.77
2022-10-14T05:07:31.314Z,22.47
2022-10-14T05:10:09.837Z,20.83
2022-10-14T05:12:41.174Z,18.43
2022-10-14T05:15:09.622Z,19.13
2022-10-14T05:17:47.639Z,22.97
2022-10-14T05:20:17.646Z,16.77
2022-10-14T05:22:48.700Z,19.03
2022-10-14T05:25:15.422Z,22.13
2022-10-14T05:27:42.874Z,16.53
2022-10-14T05:30:11.000Z,19.60
2022-10-14T05:32:43.240Z,18.33
2022-10-14T05:35:10.952Z,19.67
2022-10-14T05:37:39.905Z,19.03
2022-10-14T05:40:07.534Z,19.83
2022-10-14T05:42:36.518Z,19.57
2022-10-14T05:45:04.938Z,20.13
2022-10-14T05:47:34.111Z,26.90
2022-10-14T05:50:12.228Z,22.93
2022-10-14T05:52:42.528Z,21.50
2022-10-14T05:55:22.630Z,29.70
2022-10-14T05:57:55.298Z,29.00
2022-10-14T06:00:25.729Z,32.07
2022-10-14T06:03:01.194Z,32.23
2022-10-14T06:05:29.089Z,26.97
2022-10-14T06:07:55.680Z,31.17
2022-10-14T06:10:22.844Z,27.93
2022-10-14T06:12:49.576Z,28.77
2022-10-14T06:15:16.360Z,32.60
2022-10-14T06:17:43.918Z,33.73
2022-10-14T06:20:10.833Z,52.13
2022-10-14T06:22:37.464Z,35.20
2022-10-14T06:25:04.702Z,37.67
2022-10-14T06:27:31.478Z,27.60
2022-10-14T06:29:58.396Z,29.77
2022-10-14T06:32:25.186Z,36.17
2022-10-14T06:34:51.889Z,34.17
2022-10-14T06:37:18.415Z,30.53
2022-10-14T06:39:45.238Z,39.73
2022-10-14T06:42:13.163Z,37.20
2022-10-14T06:44:40.042Z,38.83
2022-10-14T06:47:06.892Z,81.53
2022-10-14T06:49:35.009Z,55.47
2022-10-14T06:52:01.555Z,36.47
2022-10-14T06:54:28.084Z,39.03
2022-10-14T06:56:57.557Z,34.83
2022-10-14T06:59:24.254Z,31.13
2022-10-14T07:01:51.160Z,34.93
2022-10-14T07:04:17.918Z,37.10
2022-10-14T07:06:44.634Z,37.77
2022-10-14T07:09:11.465Z,29.63
2022-10-14T07:11:38.168Z,33.93
2022-10-14T07:14:04.864Z,31.77
2022-10-14T07:16:31.753Z,31.17
2022-10-14T07:18:59.709Z,31.00
2022-10-14T07:21:26.294Z,29.67
2022-10-14T07:23:54.343Z,29.50
2022-10-14T07:26:21.102Z,30.63
2022-10-14T07:28:47.833Z,30.37
2022-10-14T07:31:14.673Z,36.63
2022-10-14T07:33:41.432Z,29.30
2022-10-14T07:36:10.105Z,29.83
2022-10-14T07:38:37.095Z,28.67
2022-10-14T07:41:04.949Z,28.47
2022-10-14T07:43:32.024Z,31.80
2022-10-14T07:46:02.935Z,34.80
2022-10-14T07:48:32.774Z,35.57
2022-10-14T07:51:06.262Z,32.50
2022-10-14T07:53:33.303Z,35.93
2022-10-14T07:56:00.381Z,32.97
2022-10-14T07:58:27.978Z,39.23
2022-10-14T08:00:54.777Z,34.30
2022-10-14T08:03:21.713Z,35.33
2022-10-14T08:05:50.188Z,30.07
2022-10-14T08:08:17.829Z,35.03
2022-10-14T08:10:44.961Z,31.40
2022-10-14T08:13:11.804Z,31.80
2022-10-14T08:15:40.880Z,28.80
2022-10-14T08:18:07.984Z,32.43
2022-10-14T08:20:34.954Z,30.87
2022-10-14T08:23:02.819Z,29.63
2022-10-14T08:25:30.771Z,29.27
2022-10-14T08:27:58.519Z,28.93
2022-10-14T08:30:25.849Z,25.50
2022-10-14T08:32:52.648Z,23.67
2022-10-14T08:35:19.343Z,28.80
2022-10-14T08:38:01.902Z,27.57
2022-10-14T08:40:29.023Z,28.03
2022-10-14T08:42:55.669Z,27.07
2022-10-14T08:45:28.471Z,25.97
2022-10-14T08:47:56.046Z,28.10
2022-10-14T08:50:29.182Z,27.40
2022-10-14T08:52:57.870Z,27.77
2022-10-14T08:55:37.617Z,31.97
2022-10-14T08:58:13.680Z,25.07
2022-10-14T09:00:41.027Z,33.20
2022-10-14T09:03:13.603Z,29.23
2022-10-14T09:05:40.782Z,31.80
2022-10-14T09:08:08.299Z,30.23
2022-10-14T09:10:36.000Z,29.53
2022-10-14T09:13:09.235Z,34.47
2022-10-14T09:15:40.251Z,26.77
2022-10-14T09:18:25.958Z,29.27
2022-10-14T09:20:52.976Z,29.73
2022-10-14T09:23:20.514Z,28.37
2022-10-14T09:25:51.030Z,29.20
2022-10-14T09:28:19.543Z,26.93
2022-10-14T09:30:46.131Z,26.47
2022-10-14T09:33:14.404Z,25.93
2022-10-14T09:35:41.563Z,28.13
2022-10-14T09:38:08.222Z,25.43
2022-10-14T09:40:35.671Z,23.20
2022-10-14T09:43:08.202Z,26.53
2022-10-14T09:45:53.621Z,29.07
2022-10-14T09:48:41.969Z,24.03
2022-10-14T09:51:10.288Z,23.77
2022-10-14T09:53:42.925Z,25.37
2022-10-14T09:56:10.265Z,21.87
2022-10-14T09:58:47.055Z,25.03
2022-10-14T10:01:14.579Z,29.17
2022-10-14T10:03:41.627Z,28.53
2022-10-14T10:06:13.301Z,23.80
2022-10-14T10:09:00.475Z,20.07
2022-10-14T10:11:37.493Z,20.90
2022-10-14T10:14:30.498Z,24.70
2022-10-14T10:17:18.961Z,23.23
2022-10-14T10:19:51.761Z,24.93
2022-10-14T10:22:24.607Z,21.43
2022-10-14T10:24:52.596Z,24.57
2022-10-14T10:27:26.763Z,23.67
2022-10-14T10:29:55.885Z,22.67
2022-10-14T10:32:22.831Z,19.93
2022-10-14T10:34:52.715Z,22.03
2022-10-14T10:37:20.029Z,22.60
2022-10-14T10:40:14.836Z,23.57
2022-10-14T10:42:51.803Z,24.13
2022-10-14T10:45:42.662Z,20.50
2022-10-14T10:48:21.168Z,21.53
2022-10-14T10:50:58.253Z,24.63
2022-10-14T10:53:29.470Z,22.80
2022-10-14T10:56:11.672Z,26.07
2022-10-14T10:58:42.578Z,28.80
2022-10-14T11:01:09.287Z,24.47
2022-10-14T11:03:56.899Z,23.60
2022-10-14T11:06:50.408Z,25.07
2022-10-14T11:09:49.180Z,22.20
2022-10-14T11:12:38.026Z,22.50
2022-10-14T11:15:04.663Z,22.23
2022-10-14T11:20:25.669Z,22.20
2022-10-14T11:23:05.370Z,21.40
2022-10-14T11:25:35.151Z,25.00
2022-10-14T11:28:11.049Z,23.27
2022-10-14T11:31:01.015Z,19.40
2022-10-14T11:33:39.893Z,23.03
2022-10-14T11:36:18.850Z,21.83
2022-10-14T11:38:49.460Z,21.60
2022-10-14T11:41:19.258Z,20.40
2022-10-14T11:43:49.108Z,26.77
2022-10-14T11:46:19.935Z,26.10
2022-10-14T11:48:46.621Z,23.73
2022-10-14T11:51:35.814Z,27.57
2022-10-14T11:54:04.285Z,24.27
2022-10-14T11:56:40.097Z,26.97
2022-10-14T11:59:42.195Z,26.07
2022-10-14T12:02:47.047Z,24.73
2022-10-14T12:05:19.814Z,19.10
2022-10-14T12:07:58.206Z,24.50
2022-10-14T12:10:30.035Z,21.77
2022-10-14T12:12:56.954Z,22.53
2022-10-14T12:15:24.384Z,21.53
2022-10-14T12:17:53.594Z,24.90
2022-10-14T12:20:40.583Z,17.10
2022-10-14T12:23:07.959Z,22.20
2022-10-14T12:25:39.133Z,30.07
2022-10-14T12:28:05.687Z,19.80
2022-10-14T12:30:32.926Z,16.80
2022-10-14T12:33:09.523Z,14.63
2022-10-14T12:35:52.709Z,16.80
2022-10-14T12:38:20.238Z,18.73
2022-10-14T12:40:49.475Z,17.97
2022-10-14T12:43:21.625Z,18.93
2022-10-14T12:45:49.661Z,21.57
2022-10-14T12:48:19.389Z,19.67
2022-10-14T12:50:47.579Z,21.83
2022-10-14T12:53:21.722Z,19.10
2022-10-14T12:55:49.842Z,16.80
2022-10-14T12:58:28.878Z,18.13
2022-10-14T13:00:59.479Z,20.40
2022-10-14T13:03:27.583Z,16.83
2022-10-14T13:05:54.211Z,16.40
2022-10-14T13:08:21.035Z,15.80
2022-10-14T13:10:48.622Z,21.50
2022-10-14T13:13:33.906Z,14.10
2022-10-14T13:16:00.674Z,17.63
2022-10-14T13:18:44.095Z,16.17
2022-10-14T13:21:32.369Z,14.43
2022-10-14T13:24:00.011Z,17.07
2022-10-14T13:26:39.270Z,15.20
2022-10-14T13:29:13.133Z,19.90
2022-10-14T13:31:43.982Z,19.77
2022-10-14T13:34:13.459Z,19.23
2022-10-14T13:37:00.654Z,17.60
2022-10-14T13:39:53.145Z,17.47
2022-10-14T13:42:24.248Z,21.93
2022-10-14T13:44:51.220Z,18.07
2022-10-14T13:47:18.725Z,19.73
2022-10-14T13:49:46.561Z,17.37
2022-10-14T13:52:15.884Z,19.90
2022-10-14T13:54:43.937Z,20.37
2022-10-14T13:57:48.010Z,18.63
2022-10-14T14:02:51.501Z,17.90
2022-10-14T14:05:24.521Z,18.67
2022-10-14T14:11:03.755Z,17.40
2022-10-14T14:13:27.827Z,19.53
2022-10-14T14:15:55.078Z,19.53
2022-10-14T14:18:55.916Z,14.33
2022-10-14T14:21:30.030Z,16.67
2022-10-14T14:24:01.837Z,18.23
2022-10-14T14:26:28.867Z,17.90
2022-10-14T14:28:55.616Z,16.37
2022-10-14T14:31:22.413Z,21.10
2022-10-14T14:33:49.012Z,14.07
2022-10-14T14:36:27.733Z,21.40
2022-10-14T14:39:01.599Z,19.10
2022-10-14T14:41:29.936Z,17.53
2022-10-14T14:44:24.027Z,19.20
2022-10-14T14:46:45.096Z,16.27
2022-10-14T14:49:12.507Z,17.83
2022-10-14T14:51:39.617Z,18.03
2022-10-14T14:54:06.328Z,17.37
2022-10-14T14:56:40.898Z,21.57
2022-10-14T14:59:16.808Z,20.30
2022-10-14T15:01:43.478Z,18.30
2022-10-14T15:04:19.789Z,20.37
2022-10-14T15:06:50.785Z,22.93
2022-10-14T15:09:23.122Z,24.53
2022-10-14T15:11:54.901Z,19.77
2022-10-14T15:14:27.389Z,22.43
2022-10-14T15:16:54.943Z,23.93
2022-10-14T15:19:21.535Z,20.97
2022-10-14T15:21:53.832Z,23.53
2022-10-14T15:24:20.507Z,23.53
2022-10-14T15:26:47.087Z,24.57
2022-10-14T15:31:46.684Z,24.13
2022-10-14T15:34:17.549Z,28.13
2022-10-14T15:36:44.351Z,25.13
2022-10-14T15:39:14.295Z,20.80
2022-10-14T15:41:41.331Z,21.20
2022-10-14T15:44:09.465Z,24.43
2022-10-14T15:46:54.893Z,21.37
2022-10-14T15:49:24.337Z,19.10
2022-10-14T15:51:51.012Z,20.87
2022-10-14T15:54:17.740Z,21.93
2022-10-14T15:56:44.559Z,23.50
2022-10-14T15:59:11.322Z,25.33
2022-10-14T16:01:38.162Z,24.30
2022-10-14T16:04:06.669Z,23.90
2022-10-14T16:06:33.663Z,27.70
2022-10-14T16:09:00.319Z,27.20
2022-10-14T16:11:27.842Z,37.10
2022-10-14T16:13:54.549Z,34.17
2022-10-14T16:16:47.271Z,30.13
2022-10-14T16:19:14.256Z,42.03
2022-10-14T16:21:41.140Z,35.17
2022-10-14T16:24:08.321Z,41.70
2022-10-14T16:26:35.133Z,36.57
2022-10-14T16:29:03.848Z,40.67
2022-10-14T16:31:30.587Z,40.43
2022-10-14T16:33:57.210Z,35.87
2022-10-14T16:36:26.169Z,37.20
2022-10-14T16:38:56.062Z,38.67
2022-10-14T16:41:31.150Z,42.03
2022-10-14T16:43:59.193Z,43.23
2022-10-14T16:46:46.751Z,42.90
2022-10-14T16:49:14.375Z,40.33
2022-10-14T16:51:44.223Z,52.10
2022-10-14T16:54:11.061Z,47.47
2022-10-14T16:56:52.861Z,50.37
2022-10-14T16:59:22.535Z,43.17
2022-10-14T17:01:49.477Z,37.63
2022-10-14T17:04:20.488Z,44.30
2022-10-14T17:06:51.821Z,42.00
2022-10-14T17:09:26.184Z,42.73
2022-10-14T17:11:56.584Z,42.13
2022-10-14T17:14:26.554Z,43.53
2022-10-14T17:16:55.257Z,41.43
2022-10-14T17:19:22.907Z,38.10
2022-10-14T17:21:51.039Z,40.10
2022-10-14T17:24:17.744Z,40.03
2022-10-14T17:26:45.130Z,39.83
2022-10-14T17:29:11.979Z,35.43
2022-10-14T17:31:42.588Z,35.37
2022-10-14T17:34:11.149Z,34.27
2022-10-14T17:36:37.834Z,39.07
2022-10-14T17:39:05.264Z,43.10
2022-10-14T17:41:31.860Z,40.60
2022-10-14T17:43:59.706Z,46.97
2022-10-14T17:46:27.123Z,41.43
2022-10-14T17:48:58.806Z,41.47
2022-10-14T17:51:28.478Z,41.53
2022-10-14T17:53:59.592Z,34.70
2022-10-14T17:56:26.878Z,37.57
2022-10-14T17:59:02.322Z,41.27
2022-10-14T18:01:37.662Z,44.37
2022-10-14T18:04:12.050Z,51.53
2022-10-14T18:06:42.200Z,50.33
2022-10-14T18:09:11.452Z,45.13
2022-10-14T18:14:29.971Z,36.27
2022-10-14T18:16:59.642Z,44.70
2022-10-14T18:19:28.065Z,38.93
2022-10-14T18:21:54.661Z,37.17
2022-10-14T18:24:23.176Z,42.63
2022-10-14T18:26:52.332Z,37.40
2022-10-14T18:29:23.450Z,42.10
2022-10-14T18:34:20.095Z,41.20
2022-10-14T18:36:47.906Z,31.97
2022-10-14T18:39:16.034Z,37.50
2022-10-14T18:41:46.248Z,34.17
2022-10-14T18:44:20.391Z,36.77
2022-10-14T18:46:48.543Z,41.00
2022-10-14T18:49:15.185Z,35.67
2022-10-14T18:51:43.532Z,40.17
2022-10-14T18:54:17.737Z,43.43
2022-10-14T18:56:44.500Z,34.93
2022-10-14T18:59:14.559Z,37.93
2022-10-14T19:01:42.170Z,35.70
2022-10-14T19:04:09.507Z,37.50
2022-10-14T19:06:37.710Z,33.40
2022-10-14T19:09:04.778Z,35.87
2022-10-14T19:11:33.843Z,38.83
2022-10-14T19:14:06.442Z,56.10
2022-10-14T19:16:36.274Z,41.60
2022-10-14T19:19:08.350Z,40.03
2022-10-14T19:21:35.750Z,57.97
2022-10-14T19:24:03.017Z,59.77
2022-10-14T19:26:35.686Z,59.03
2022-10-14T19:29:04.298Z,48.43
2022-10-14T19:31:36.562Z,46.50
2022-10-14T19:34:04.727Z,43.00
2022-10-14T19:36:33.874Z,55.43
2022-10-14T19:39:00.646Z,45.97
2022-10-14T19:41:28.413Z,66.73
2022-10-14T19:43:56.589Z,52.10
2022-10-14T19:46:24.676Z,50.57
2022-10-14T19:48:52.123Z,49.73
2022-10-14T19:51:22.931Z,63.37
2022-10-14T19:53:49.601Z,70.33
2022-10-14T19:56:16.141Z,81.87
2022-10-14T19:58:44.831Z,63.40
2022-10-14T20:01:15.702Z,64.00
2022-10-14T20:03:44.281Z,107.57
2022-10-14T20:06:12.934Z,73.07
2022-10-14T20:08:41.553Z,61.27
2022-10-14T20:11:09.696Z,70.90
2022-10-14T20:13:38.061Z,102.40
2022-10-14T20:16:06.425Z,146.53
2022-10-14T20:18:33.216Z,135.13
2022-10-14T20:21:04.590Z,98.83
2022-10-14T20:23:35.429Z,107.07
2022-10-14T20:26:03.750Z,103.60
2022-10-14T20:28:31.030Z,91.27
2022-10-14T20:30:59.190Z,88.53
2022-10-14T20:33:26.268Z,90.13
2022-10-14T20:36:02.793Z,79.87
2022-10-14T20:38:33.118Z,81.47
2022-10-14T20:41:14.245Z,77.10
2022-10-14T20:43:41.071Z,78.23
2022-10-14T20:46:07.545Z,71.80
2022-10-14T20:48:35.477Z,63.07
2022-10-14T20:51:04.361Z,67.90
2022-10-14T20:53:31.176Z,66.83
2022-10-14T20:56:07.871Z,61.07
2022-10-14T20:58:34.684Z,77.60
2022-10-14T21:01:07.647Z,68.17
2022-10-14T21:03:34.295Z,71.20
2022-10-14T21:06:01.376Z,68.80
2022-10-14T21:08:28.275Z,95.20
2022-10-14T21:10:59.074Z,95.97
2022-10-14T21:13:25.948Z,100.27
2022-10-14T21:15:52.786Z,124.30
2022-10-14T21:18:19.443Z,108.70
2022-10-14T21:20:47.455Z,109.90
2022-10-14T21:23:16.504Z,119.13
2022-10-14T21:25:43.090Z,117.70
2022-10-14T21:28:09.616Z,114.93
2022-10-14T21:30:40.811Z,100.73
2022-10-14T21:33:07.459Z,97.53
2022-10-14T21:35:33.960Z,100.70
2022-10-14T21:38:00.574Z,97.57
2022-10-14T21:40:28.197Z,93.57
2022-10-14T21:42:54.685Z,100.03
2022-10-14T21:45:23.551Z,86.23
2022-10-14T21:47:53.275Z,89.97
2022-10-14T21:50:20.222Z,80.83
2022-10-14T21:52:46.990Z,80.43
2022-10-14T21:55:14.996Z,77.03
2022-10-14T21:57:41.506Z,80.57
2022-10-14T22:00:09.298Z,75.77
2022-10-14T22:02:36.009Z,78.70
2022-10-14T22:05:02.618Z,93.13
2022-10-14T22:07:29.199Z,90.87
2022-10-14T22:09:55.676Z,79.03
2022-10-14T22:12:22.261Z,84.47
2022-10-14T22:14:48.768Z,86.90
2022-10-14T22:17:15.404Z,71.00
2022-10-14T22:19:41.885Z,88.70
2022-10-14T22:22:08.885Z,80.37
2022-10-14T22:24:36.307Z,86.57
2022-10-14T22:27:02.764Z,80.77
2022-10-14T22:29:29.348Z,81.33
2022-10-14T22:31:56.131Z,90.17
2022-10-14T22:34:22.676Z,96.93
2022-10-14T22:36:49.214Z,75.60
2022-10-14T22:39:16.046Z,93.57
2022-10-14T22:41:42.545Z,114.60
2022-10-14T22:44:09.694Z,86.77
2022-10-14T22:46:36.476Z,76.40
2022-10-14T22:49:04.458Z,81.13
2022-10-14T22:51:32.051Z,77.67
2022-10-14T22:53:59.127Z,58.13
2022-10-14T22:56:26.140Z,62.60
2022-10-14T22:58:56.209Z,60.13
2022-10-14T23:01:22.998Z,66.60
2022-10-14T23:03:49.533Z,72.73
2022-10-14T23:06:16.298Z,112.67
2022-10-14T23:08:42.788Z,100.73
2022-10-14T23:11:10.587Z,119.20
2022-10-14T23:13:37.002Z,119.13
2022-10-14T23:16:04.525Z,97.17
2022-10-14T23:18:32.291Z,91.20
2022-10-14T23:20:58.852Z,93.27
2022-10-14T23:23:25.343Z,106.13
2022-10-14T23:25:51.774Z,89.73
2022-10-14T23:28:18.313Z,107.20
2022-10-14T23:30:44.922Z,112.00
2022-10-14T23:33:11.856Z,91.50
2022-10-14T23:35:38.911Z,91.77
2022-10-14T23:38:05.456Z,81.97
2022-10-14T23:40:31.904Z,101.87
2022-10-14T23:42:58.458Z,96.47
2022-10-14T23:45:24.963Z,89.83
2022-10-14T23:47:51.467Z,86.27
2022-10-14T23:50:18.035Z,81.87
2022-10-14T23:52:45.946Z,102.27
2022-10-14T23:55:12.951Z,114.00
2022-10-14T23:57:40.296Z,90.13
